MPTO/PTY METAR and TAF weather

Enter ICAO airport designator
Station Type Date Time Source
MPTO METAR 2021/07/24 20:00 UTC NOAA

MPTO 242000Z 26007KT 9999 SCT016 BKN080 27/24 Q1012 NOSIG


Station Type Date Time Source
MPTO Decoded METAR 2021/07/24 20:00 UTC NOAA

Tocumen, Panama (MPTO) 09-03N 079-22W
Jul 24, 2021 - 04:00 PM EDT / 2021.07.24 2000 UTC
Wind: from the W (260 degrees) at 8 MPH (7 KT):0
Visibility: greater than 7 mile(s):0
Sky conditions: mostly cloudy
Temperature: 80 F (27 C)
Dew Point: 75 F (24 C)
Relative Humidity: 83%
Pressure (altimeter): 29.88 in. Hg (1012 hPa)
ob: MPTO 242000Z 26007KT 9999 SCT016 BKN080 27/24 Q1012 NOSIG
cycle: 20

Station Type Date Time Source
MPTO TAF 2021/07/24 18:28 UTC NOAA

TAF MPTO 241700Z 2418/2524 31006KT 9999 FEW008 SCT016 BKN090
TEMPO 2420/2424 18008KT 7000 RA SCT015CB BKN080
TEMPO 2501/2505 VRB02KT 9999 NSW PROB30 2519/2523 6000 TSRA SCT014CB BKN090

Example: see airport list